sensor_id;sensor_type;location;lat;lon;timestamp;pressure;altitude;pressure_sealevel;temperature;humidity
64019;BME280;66942;52.138;5.216;2023-09-19T00:01:06;100689.0;;;23.98;45.8
64019;BME280;66942;52.138;5.216;2023-09-19T00:02:43;100694.0;;;24.08;45.61
64019;BME280;66942;52.138;5.216;2023-09-19T00:05:55;100697.0;;;23.93;46.06
64019;BME280;66942;52.138;5.216;2023-09-19T00:07:33;100702.0;;;23.89;46.25
64019;BME280;66942;52.138;5.216;2023-09-19T00:09:09;100706.0;;;24.01;45.87
64019;BME280;66942;52.138;5.216;2023-09-19T00:10:45;100710.0;;;24.13;45.74
64019;BME280;66942;52.138;5.216;2023-09-19T00:13:57;100713.0;;;24.29;45.3
64019;BME280;66942;52.138;5.216;2023-09-19T00:15:37;100715.0;;;24.16;45.6
64019;BME280;66942;52.138;5.216;2023-09-19T00:17:15;100714.0;;;24.22;45.58
64019;BME280;66942;52.138;5.216;2023-09-19T00:20:27;100711.0;;;24.19;45.51
64019;BME280;66942;52.138;5.216;2023-09-19T00:22:03;100708.0;;;24.19;45.7
64019;BME280;66942;52.138;5.216;2023-09-19T00:23:39;100714.0;;;24.22;45.59
64019;BME280;66942;52.138;5.216;2023-09-19T00:26:51;100711.0;;;24.13;46.05
64019;BME280;66942;52.138;5.216;2023-09-19T00:28:27;100715.0;;;24.28;45.68
64019;BME280;66942;52.138;5.216;2023-09-19T00:30:05;100716.0;;;24.23;45.73
64019;BME280;66942;52.138;5.216;2023-09-19T00:31:43;100718.0;;;24.19;45.82
64019;BME280;66942;52.138;5.216;2023-09-19T00:34:55;100719.0;;;24.13;46.29
64019;BME280;66942;52.138;5.216;2023-09-19T00:36:31;100718.0;;;24.33;45.68
64019;BME280;66942;52.138;5.216;2023-09-19T00:38:07;100720.0;;;24.31;45.89
64019;BME280;66942;52.138;5.216;2023-09-19T00:41:19;100717.0;;;24.3;45.85
64019;BME280;66942;52.138;5.216;2023-09-19T00:42:57;100720.0;;;24.31;45.78
64019;BME280;66942;52.138;5.216;2023-09-19T00:44:33;100716.0;;;24.49;45.37
64019;BME280;66942;52.138;5.216;2023-09-19T00:47:48;100720.0;;;24.53;45.39
64019;BME280;66942;52.138;5.216;2023-09-19T00:49:24;100726.0;;;24.32;45.85
64019;BME280;66942;52.138;5.216;2023-09-19T00:51:02;100730.0;;;24.3;46.08
64019;BME280;66942;52.138;5.216;2023-09-19T00:52:40;100730.0;;;24.23;45.88
64019;BME280;66942;52.138;5.216;2023-09-19T00:55:54;100733.0;;;24.22;45.72
64019;BME280;66942;52.138;5.216;2023-09-19T00:57:31;100736.0;;;24.4;45.52
64019;BME280;66942;52.138;5.216;2023-09-19T00:59:08;100738.0;;;24.22;45.7
64019;BME280;66942;52.138;5.216;2023-09-19T01:02:21;100739.0;;;24.33;45.66
64019;BME280;66942;52.138;5.216;2023-09-19T01:03:57;100742.0;;;24.25;45.62
64019;BME280;66942;52.138;5.216;2023-09-19T01:05:33;100742.0;;;24.12;45.77
64019;BME280;66942;52.138;5.216;2023-09-19T01:08:46;100744.0;;;24.16;45.96
64019;BME280;66942;52.138;5.216;2023-09-19T01:10:22;100742.0;;;24.25;45.54
64019;BME280;66942;52.138;5.216;2023-09-19T01:12:02;100743.0;;;24.28;45.47
64019;BME280;66942;52.138;5.216;2023-09-19T01:13:48;100737.0;;;24.39;45.1
64019;BME280;66942;52.138;5.216;2023-09-19T01:17:31;100736.0;;;24.05;45.8
64019;BME280;66942;52.138;5.216;2023-09-19T01:19:36;100740.0;;;24.05;45.92
64019;BME280;66942;52.138;5.216;2023-09-19T01:21:37;100739.0;;;24.1;45.67
64019;BME280;66942;52.138;5.216;2023-09-19T01:23:24;100739.0;;;24.1;45.47
64019;BME280;66942;52.138;5.216;2023-09-19T01:25:20;100744.0;;;24.03;45.65
64019;BME280;66942;52.138;5.216;2023-09-19T01:27:25;100742.0;;;24.06;45.41
64019;BME280;66942;52.138;5.216;2023-09-19T01:29:25;100744.0;;;24.16;45.19
64019;BME280;66942;52.138;5.216;2023-09-19T01:31:10;100742.0;;;23.94;45.46
64019;BME280;66942;52.138;5.216;2023-09-19T01:32:47;100740.0;;;24.04;45.26
64019;BME280;66942;52.138;5.216;2023-09-19T01:34:25;100743.0;;;24.05;45.24
64019;BME280;66942;52.138;5.216;2023-09-19T01:37:38;100743.0;;;24.26;44.79
64019;BME280;66942;52.138;5.216;2023-09-19T01:39:14;100747.0;;;23.87;45.56
64019;BME280;66942;52.138;5.216;2023-09-19T01:40:56;100747.0;;;23.99;45.55
64019;BME280;66942;52.138;5.216;2023-09-19T01:44:26;100750.0;;;23.98;45.32
64019;BME280;66942;52.138;5.216;2023-09-19T01:46:19;100751.0;;;23.96;45.25
64019;BME280;66942;52.138;5.216;2023-09-19T01:48:07;100757.0;;;23.88;45.35
64019;BME280;66942;52.138;5.216;2023-09-19T01:50:02;100763.0;;;23.87;45.29
64019;BME280;66942;52.138;5.216;2023-09-19T01:51:53;100766.0;;;23.75;45.59
64019;BME280;66942;52.138;5.216;2023-09-19T01:53:41;100761.0;;;23.84;45.19
64019;BME280;66942;52.138;5.216;2023-09-19T01:55:20;100763.0;;;23.81;45.36
64019;BME280;66942;52.138;5.216;2023-09-19T01:58:45;100760.0;;;23.86;44.87
64019;BME280;66942;52.138;5.216;2023-09-19T02:00:25;100759.0;;;24.03;44.58
64019;BME280;66942;52.138;5.216;2023-09-19T02:02:05;100758.0;;;23.92;44.65
64019;BME280;66942;52.138;5.216;2023-09-19T02:03:43;100759.0;;;23.83;44.8
64019;BME280;66942;52.138;5.216;2023-09-19T02:07:00;100755.0;;;23.98;44.56
64019;BME280;66942;52.138;5.216;2023-09-19T02:08:36;100751.0;;;23.94;44.5
64019;BME280;66942;52.138;5.216;2023-09-19T02:10:13;100751.0;;;24.01;44.27
64019;BME280;66942;52.138;5.216;2023-09-19T02:13:26;100747.0;;;24.08;44.04
64019;BME280;66942;52.138;5.216;2023-09-19T02:15:02;100747.0;;;24.11;43.72
64019;BME280;66942;52.138;5.216;2023-09-19T02:16:38;100749.0;;;24.12;43.84
64019;BME280;66942;52.138;5.216;2023-09-19T02:19:50;100755.0;;;24.17;44.03
64019;BME280;66942;52.138;5.216;2023-09-19T02:21:26;100758.0;;;24.18;44.04
64019;BME280;66942;52.138;5.216;2023-09-19T02:23:03;100760.0;;;24.32;43.47
64019;BME280;66942;52.138;5.216;2023-09-19T02:24:39;100755.0;;;24.44;43.28
64019;BME280;66942;52.138;5.216;2023-09-19T02:27:51;100752.0;;;24.46;42.73
64019;BME280;66942;52.138;5.216;2023-09-19T02:29:28;100755.0;;;24.36;42.95
64019;BME280;66942;52.138;5.216;2023-09-19T02:31:04;100752.0;;;24.38;42.61
64019;BME280;66942;52.138;5.216;2023-09-19T02:34:16;100755.0;;;24.33;42.69
64019;BME280;66942;52.138;5.216;2023-09-19T02:35:55;100759.0;;;24.45;42.77
64019;BME280;66942;52.138;5.216;2023-09-19T02:37:31;100762.0;;;24.52;42.38
64019;BME280;66942;52.138;5.216;2023-09-19T02:40:43;100760.0;;;24.45;42.37
64019;BME280;66942;52.138;5.216;2023-09-19T02:42:19;100767.0;;;24.44;42.62
64019;BME280;66942;52.138;5.216;2023-09-19T02:43:55;100761.0;;;24.24;42.61
64019;BME280;66942;52.138;5.216;2023-09-19T02:47:08;100759.0;;;24.36;42.49
64019;BME280;66942;52.138;5.216;2023-09-19T02:48:44;100762.0;;;24.32;42.77
64019;BME280;66942;52.138;5.216;2023-09-19T02:50:20;100765.0;;;24.33;42.9
64019;BME280;66942;52.138;5.216;2023-09-19T02:51:56;100764.0;;;24.55;42.43
64019;BME280;66942;52.138;5.216;2023-09-19T02:55:08;100768.0;;;24.46;42.09
64019;BME280;66942;52.138;5.216;2023-09-19T02:56:44;100768.0;;;24.43;42.53
64019;BME280;66942;52.138;5.216;2023-09-19T02:58:20;100776.0;;;24.57;42.12
64019;BME280;66942;52.138;5.216;2023-09-19T03:01:33;100769.0;;;24.39;42.19
64019;BME280;66942;52.138;5.216;2023-09-19T03:03:09;100768.0;;;24.47;41.82
64019;BME280;66942;52.138;5.216;2023-09-19T03:04:45;100766.0;;;24.33;42.67
64019;BME280;66942;52.138;5.216;2023-09-19T03:07:57;100761.0;;;24.38;42.25
64019;BME280;66942;52.138;5.216;2023-09-19T03:09:33;100759.0;;;24.46;42.16
64019;BME280;66942;52.138;5.216;2023-09-19T03:11:09;100764.0;;;24.53;42.08
64019;BME280;66942;52.138;5.216;2023-09-19T03:12:45;100757.0;;;24.59;42.25
64019;BME280;66942;52.138;5.216;2023-09-19T03:15:57;100756.0;;;24.39;42.63
64019;BME280;66942;52.138;5.216;2023-09-19T03:17:34;100757.0;;;24.4;42.6
64019;BME280;66942;52.138;5.216;2023-09-19T03:19:10;100759.0;;;24.19;43.24
64019;BME280;66942;52.138;5.216;2023-09-19T03:22:28;100760.0;;;24.39;42.68
64019;BME280;66942;52.138;5.216;2023-09-19T03:24:04;100761.0;;;24.38;42.79
64019;BME280;66942;52.138;5.216;2023-09-19T03:25:40;100760.0;;;24.33;42.67
64019;BME280;66942;52.138;5.216;2023-09-19T03:28:53;100760.0;;;24.45;42.46
64019;BME280;66942;52.138;5.216;2023-09-19T03:30:28;100757.0;;;24.48;42.3
64019;BME280;66942;52.138;5.216;2023-09-19T03:32:05;100760.0;;;24.35;42.59
64019;BME280;66942;52.138;5.216;2023-09-19T03:33:42;100764.0;;;24.39;42.28
64019;BME280;66942;52.138;5.216;2023-09-19T03:36:55;100762.0;;;24.17;42.52
64019;BME280;66942;52.138;5.216;2023-09-19T03:38:31;100756.0;;;24.33;42.26
64019;BME280;66942;52.138;5.216;2023-09-19T03:40:09;100751.0;;;24.32;42.01
64019;BME280;66942;52.138;5.216;2023-09-19T03:43:21;100755.0;;;24.35;42.01
64019;BME280;66942;52.138;5.216;2023-09-19T03:44:57;100752.0;;;24.47;41.72
64019;BME280;66942;52.138;5.216;2023-09-19T03:46:33;100751.0;;;24.32;42.2
64019;BME280;66942;52.138;5.216;2023-09-19T03:49:45;100755.0;;;24.43;41.69
64019;BME280;66942;52.138;5.216;2023-09-19T03:51:22;100757.0;;;24.38;42.05
64019;BME280;66942;52.138;5.216;2023-09-19T03:52:58;100753.0;;;24.23;42.16
64019;BME280;66942;52.138;5.216;2023-09-19T03:56:10;100755.0;;;24.43;41.72
64019;BME280;66942;52.138;5.216;2023-09-19T03:57:47;100757.0;;;24.24;41.67
64019;BME280;66942;52.138;5.216;2023-09-19T03:59:24;100765.0;;;24.35;41.87
64019;BME280;66942;52.138;5.216;2023-09-19T04:01:00;100771.0;;;24.32;41.56
64019;BME280;66942;52.138;5.216;2023-09-19T04:04:13;100780.0;;;24.41;41.04
64019;BME280;66942;52.138;5.216;2023-09-19T04:05:49;100774.0;;;24.33;41.27
64019;BME280;66942;52.138;5.216;2023-09-19T04:07:26;100774.0;;;24.33;41.29
64019;BME280;66942;52.138;5.216;2023-09-19T04:10:41;100780.0;;;24.23;41.09
64019;BME280;66942;52.138;5.216;2023-09-19T04:12:18;100785.0;;;24.24;41.37
64019;BME280;66942;52.138;5.216;2023-09-19T04:13:54;100782.0;;;24.15;41.38
64019;BME280;66942;52.138;5.216;2023-09-19T04:15:30;100795.0;;;24.07;41.36
64019;BME280;66942;52.138;5.216;2023-09-19T04:18:42;100793.0;;;24.28;41.15
64019;BME280;66942;52.138;5.216;2023-09-19T04:20:19;100790.0;;;24.22;41.17
64019;BME280;66942;52.138;5.216;2023-09-19T04:21:55;100800.0;;;24.34;41.07
64019;BME280;66942;52.138;5.216;2023-09-19T04:25:07;100800.0;;;24.31;40.6
64019;BME280;66942;52.138;5.216;2023-09-19T04:26:43;100799.0;;;24.33;40.71
64019;BME280;66942;52.138;5.216;2023-09-19T04:28:19;100810.0;;;24.1;40.51
64019;BME280;66942;52.138;5.216;2023-09-19T04:31:31;100805.0;;;23.89;41.09
64019;BME280;66942;52.138;5.216;2023-09-19T04:33:07;100809.0;;;24.32;40.43
64019;BME280;66942;52.138;5.216;2023-09-19T04:34:43;100818.0;;;24.28;40.28
64019;BME280;66942;52.138;5.216;2023-09-19T04:37:56;100821.0;;;24.1;40.81
64019;BME280;66942;52.138;5.216;2023-09-19T04:39:32;100820.0;;;24.17;40.97
64019;BME280;66942;52.138;5.216;2023-09-19T04:41:08;100815.0;;;24.26;40.39
64019;BME280;66942;52.138;5.216;2023-09-19T04:42:44;100818.0;;;24.3;40.15
64019;BME280;66942;52.138;5.216;2023-09-19T04:45:56;100818.0;;;24.27;40.49
64019;BME280;66942;52.138;5.216;2023-09-19T04:47:32;100820.0;;;24.24;40.36
64019;BME280;66942;52.138;5.216;2023-09-19T04:49:08;100816.0;;;24.3;40.56
64019;BME280;66942;52.138;5.216;2023-09-19T04:52:20;100818.0;;;24.29;40.44
64019;BME280;66942;52.138;5.216;2023-09-19T04:53:57;100819.0;;;24.25;40.17
64019;BME280;66942;52.138;5.216;2023-09-19T04:55:33;100816.0;;;24.22;40.65
64019;BME280;66942;52.138;5.216;2023-09-19T04:58:45;100815.0;;;24.12;40.53
64019;BME280;66942;52.138;5.216;2023-09-19T05:00:22;100814.0;;;24.24;40.49
64019;BME280;66942;52.138;5.216;2023-09-19T05:01:58;100810.0;;;24.01;40.87
64019;BME280;66942;52.138;5.216;2023-09-19T05:05:11;100823.0;;;24.17;40.92
64019;BME280;66942;52.138;5.216;2023-09-19T05:06:47;100822.0;;;24.12;40.6
64019;BME280;66942;52.138;5.216;2023-09-19T05:08:23;100822.0;;;24.11;40.99
64019;BME280;66942;52.138;5.216;2023-09-19T05:10:00;100821.0;;;24.01;41.43
64019;BME280;66942;52.138;5.216;2023-09-19T05:13:12;100820.0;;;24.12;41.12
64019;BME280;66942;52.138;5.216;2023-09-19T05:14:48;100823.0;;;23.96;41.33
64019;BME280;66942;52.138;5.216;2023-09-19T05:16:24;100826.0;;;24.2;40.92
64019;BME280;66942;52.138;5.216;2023-09-19T05:19:36;100830.0;;;24.16;40.75
64019;BME280;66942;52.138;5.216;2023-09-19T05:21:12;100817.0;;;24.39;40.42
64019;BME280;66942;52.138;5.216;2023-09-19T05:22:48;100816.0;;;24.24;40.53
64019;BME280;66942;52.138;5.216;2023-09-19T05:26:00;100822.0;;;23.87;41.28
64019;BME280;66942;52.138;5.216;2023-09-19T05:27:36;100827.0;;;24.14;41.07
64019;BME280;66942;52.138;5.216;2023-09-19T05:29:12;100824.0;;;24.15;40.98
64019;BME280;66942;52.138;5.216;2023-09-19T05:32:24;100824.0;;;24.12;41.24
64019;BME280;66942;52.138;5.216;2023-09-19T05:34:00;100821.0;;;24.26;40.86
64019;BME280;66942;52.138;5.216;2023-09-19T05:35:36;100821.0;;;24.32;40.57
64019;BME280;66942;52.138;5.216;2023-09-19T05:37:12;100819.0;;;24.21;40.81
64019;BME280;66942;52.138;5.216;2023-09-19T05:40:25;100816.0;;;24.39;40.71
64019;BME280;66942;52.138;5.216;2023-09-19T05:42:02;100818.0;;;24.32;40.89
64019;BME280;66942;52.138;5.216;2023-09-19T05:43:38;100822.0;;;24.54;40.56
64019;BME280;66942;52.138;5.216;2023-09-19T05:46:50;100824.0;;;24.53;40.67
64019;BME280;66942;52.138;5.216;2023-09-19T05:48:26;100827.0;;;24.41;40.6
64019;BME280;66942;52.138;5.216;2023-09-19T05:50:03;100827.0;;;24.29;41.08
64019;BME280;66942;52.138;5.216;2023-09-19T05:53:15;100825.0;;;24.6;40.82
64019;BME280;66942;52.138;5.216;2023-09-19T05:54:50;100833.0;;;24.49;40.72
64019;BME280;66942;52.138;5.216;2023-09-19T05:56:27;100841.0;;;24.49;41.09
64019;BME280;66942;52.138;5.216;2023-09-19T05:58:03;100839.0;;;24.25;41.05
64019;BME280;66942;52.138;5.216;2023-09-19T06:01:15;100836.0;;;24.61;40.53
64019;BME280;66942;52.138;5.216;2023-09-19T06:02:51;100837.0;;;24.62;40.51
64019;BME280;66942;52.138;5.216;2023-09-19T06:04:27;100845.0;;;24.54;40.92
64019;BME280;66942;52.138;5.216;2023-09-19T06:07:39;100849.0;;;24.51;40.81
64019;BME280;66942;52.138;5.216;2023-09-19T06:09:15;100850.0;;;24.63;40.78
64019;BME280;66942;52.138;5.216;2023-09-19T06:10:51;100848.0;;;24.73;40.39
64019;BME280;66942;52.138;5.216;2023-09-19T06:14:04;100851.0;;;24.77;40.32
64019;BME280;66942;52.138;5.216;2023-09-19T06:15:40;100856.0;;;24.79;40.56
64019;BME280;66942;52.138;5.216;2023-09-19T06:17:16;100853.0;;;24.86;40.33
64019;BME280;66942;52.138;5.216;2023-09-19T06:20:28;100857.0;;;24.88;40.21
64019;BME280;66942;52.138;5.216;2023-09-19T06:22:04;100864.0;;;24.84;40.31
64019;BME280;66942;52.138;5.216;2023-09-19T06:23:40;100864.0;;;25.02;40.28
64019;BME280;66942;52.138;5.216;2023-09-19T06:25:17;100858.0;;;24.91;40.81
64019;BME280;66942;52.138;5.216;2023-09-19T06:28:29;100855.0;;;24.89;41.04
64019;BME280;66942;52.138;5.216;2023-09-19T06:30:07;100858.0;;;24.99;40.56
64019;BME280;66942;52.138;5.216;2023-09-19T06:31:43;100859.0;;;25.06;40.53
64019;BME280;66942;52.138;5.216;2023-09-19T06:34:55;100852.0;;;25.05;40.92
64019;BME280;66942;52.138;5.216;2023-09-19T06:36:31;100847.0;;;24.7;41.17
64019;BME280;66942;52.138;5.216;2023-09-19T06:38:07;100852.0;;;25.1;40.64
64019;BME280;66942;52.138;5.216;2023-09-19T06:41:19;100849.0;;;24.95;40.89
64019;BME280;66942;52.138;5.216;2023-09-19T06:42:55;100850.0;;;25.08;40.85
64019;BME280;66942;52.138;5.216;2023-09-19T06:44:32;100848.0;;;25.19;41.08
64019;BME280;66942;52.138;5.216;2023-09-19T06:46:08;100847.0;;;25.39;40.64
64019;BME280;66942;52.138;5.216;2023-09-19T06:49:20;100855.0;;;25.2;41.04
64019;BME280;66942;52.138;5.216;2023-09-19T06:50:57;100850.0;;;25.32;40.74
64019;BME280;66942;52.138;5.216;2023-09-19T06:52:33;100859.0;;;25.32;40.74
64019;BME280;66942;52.138;5.216;2023-09-19T06:55:45;100858.0;;;25.34;40.68
64019;BME280;66942;52.138;5.216;2023-09-19T06:57:21;100853.0;;;25.33;40.67
64019;BME280;66942;52.138;5.216;2023-09-19T06:58:57;100857.0;;;25.46;40.54
64019;BME280;66942;52.138;5.216;2023-09-19T07:02:10;100855.0;;;25.37;41.13
64019;BME280;66942;52.138;5.216;2023-09-19T07:03:46;100852.0;;;25.11;41.2
64019;BME280;66942;52.138;5.216;2023-09-19T07:05:22;100851.0;;;25.35;40.78
64019;BME280;66942;52.138;5.216;2023-09-19T07:08:34;100850.0;;;25.62;40.35
64019;BME280;66942;52.138;5.216;2023-09-19T07:10:10;100845.0;;;25.65;40.4
64019;BME280;66942;52.138;5.216;2023-09-19T07:11:46;100849.0;;;25.52;40.14
64019;BME280;66942;52.138;5.216;2023-09-19T07:13:22;100856.0;;;25.73;40.18
64019;BME280;66942;52.138;5.216;2023-09-19T07:16:34;100855.0;;;25.48;40.42
64019;BME280;66942;52.138;5.216;2023-09-19T07:18:11;100857.0;;;25.62;40.1
64019;BME280;66942;52.138;5.216;2023-09-19T07:19:47;100866.0;;;25.91;39.5
64019;BME280;66942;52.138;5.216;2023-09-19T07:22:59;100872.0;;;25.87;39.83
64019;BME280;66942;52.138;5.216;2023-09-19T07:24:35;100869.0;;;25.93;39.81
64019;BME280;66942;52.138;5.216;2023-09-19T07:26:11;100868.0;;;25.86;39.96
64019;BME280;66942;52.138;5.216;2023-09-19T07:29:23;100874.0;;;25.97;39.57
64019;BME280;66942;52.138;5.216;2023-09-19T07:31:01;100881.0;;;26.03;39.61
64019;BME280;66942;52.138;5.216;2023-09-19T07:32:38;100878.0;;;25.96;39.92
64019;BME280;66942;52.138;5.216;2023-09-19T07:35:50;100880.0;;;25.92;39.51
64019;BME280;66942;52.138;5.216;2023-09-19T07:37:26;100880.0;;;25.95;39.53
64019;BME280;66942;52.138;5.216;2023-09-19T07:39:02;100877.0;;;25.95;39.57
64019;BME280;66942;52.138;5.216;2023-09-19T07:40:38;100891.0;;;26.04;39.74
64019;BME280;66942;52.138;5.216;2023-09-19T07:43:51;100880.0;;;26.01;39.61
64019;BME280;66942;52.138;5.216;2023-09-19T07:45:27;100880.0;;;26.25;39.56
64019;BME280;66942;52.138;5.216;2023-09-19T07:47:03;100883.0;;;26.34;39.24
64019;BME280;66942;52.138;5.216;2023-09-19T07:50:16;100880.0;;;25.98;39.49
64019;BME280;66942;52.138;5.216;2023-09-19T07:51:53;100881.0;;;26.14;39.46
64019;BME280;66942;52.138;5.216;2023-09-19T07:53:29;100888.0;;;26.37;39.06
64019;BME280;66942;52.138;5.216;2023-09-19T07:56:42;100886.0;;;26.31;39.06
64019;BME280;66942;52.138;5.216;2023-09-19T07:58:18;100891.0;;;26.27;39.1
64019;BME280;66942;52.138;5.216;2023-09-19T07:59:54;100891.0;;;26.35;39.25
64019;BME280;66942;52.138;5.216;2023-09-19T08:01:30;100892.0;;;26.3;39.58
64019;BME280;66942;52.138;5.216;2023-09-19T08:04:43;100884.0;;;26.38;39.58
64019;BME280;66942;52.138;5.216;2023-09-19T08:06:19;100887.0;;;26.38;39.47
64019;BME280;66942;52.138;5.216;2023-09-19T08:07:55;100889.0;;;26.68;39.19
64019;BME280;66942;52.138;5.216;2023-09-19T08:11:07;100892.0;;;26.73;39.46
64019;BME280;66942;52.138;5.216;2023-09-19T08:12:43;100898.0;;;26.93;39.11
64019;BME280;66942;52.138;5.216;2023-09-19T08:14:19;100894.0;;;26.76;38.83
64019;BME280;66942;52.138;5.216;2023-09-19T08:17:33;100891.0;;;26.89;38.71
64019;BME280;66942;52.138;5.216;2023-09-19T08:19:09;100886.0;;;26.67;39.33
64019;BME280;66942;52.138;5.216;2023-09-19T08:20:49;100889.0;;;26.91;38.87
64019;BME280;66942;52.138;5.216;2023-09-19T08:22:26;100887.0;;;26.89;38.54
64019;BME280;66942;52.138;5.216;2023-09-19T08:25:38;100891.0;;;26.85;38.89
64019;BME280;66942;52.138;5.216;2023-09-19T08:27:14;100881.0;;;26.45;39.65
64019;BME280;66942;52.138;5.216;2023-09-19T08:28:50;100885.0;;;26.65;39.43
64019;BME280;66942;52.138;5.216;2023-09-19T08:32:03;100883.0;;;26.82;38.93
64019;BME280;66942;52.138;5.216;2023-09-19T08:33:39;100876.0;;;27.07;38.67
64019;BME280;66942;52.138;5.216;2023-09-19T08:35:15;100872.0;;;27.19;38.67
64019;BME280;66942;52.138;5.216;2023-09-19T08:38:29;100877.0;;;27.24;38.21
64019;BME280;66942;52.138;5.216;2023-09-19T08:40:05;100872.0;;;27.02;38.75
64019;BME280;66942;52.138;5.216;2023-09-19T08:41:42;100873.0;;;27.01;38.35
64019;BME280;66942;52.138;5.216;2023-09-19T08:43:21;100876.0;;;27.1;38.67
64019;BME280;66942;52.138;5.216;2023-09-19T08:46:37;100868.0;;;26.98;38.5
64019;BME280;66942;52.138;5.216;2023-09-19T08:48:22;100871.0;;;27.3;38.07
64019;BME280;66942;52.138;5.216;2023-09-19T08:50:04;100872.0;;;27.09;38.89
64019;BME280;66942;52.138;5.216;2023-09-19T08:51:48;100866.0;;;27.29;38.19
64019;BME280;66942;52.138;5.216;2023-09-19T08:55:19;100880.0;;;27.31;38.1
64019;BME280;66942;52.138;5.216;2023-09-19T08:56:55;100874.0;;;27.32;37.49
64019;BME280;66942;52.138;5.216;2023-09-19T08:58:42;100872.0;;;27.47;37.75
64019;BME280;66942;52.138;5.216;2023-09-19T09:00:28;100876.0;;;27.25;37.89
64019;BME280;66942;52.138;5.216;2023-09-19T09:03:46;100873.0;;;26.96;38.76
64019;BME280;66942;52.138;5.216;2023-09-19T09:05:24;100878.0;;;26.88;38.46
64019;BME280;66942;52.138;5.216;2023-09-19T09:07:01;100876.0;;;27.16;37.89
64019;BME280;66942;52.138;5.216;2023-09-19T09:08:38;100885.0;;;27.54;37.89
64019;BME280;66942;52.138;5.216;2023-09-19T09:11:52;100882.0;;;27.38;38.0
64019;BME280;66942;52.138;5.216;2023-09-19T09:13:29;100880.0;;;27.27;38.6
64019;BME280;66942;52.138;5.216;2023-09-19T09:15:07;100866.0;;;27.53;37.4
64019;BME280;66942;52.138;5.216;2023-09-19T09:18:19;100866.0;;;27.9;37.51
64019;BME280;66942;52.138;5.216;2023-09-19T09:19:56;100867.0;;;28.15;37.24
64019;BME280;66942;52.138;5.216;2023-09-19T09:21:31;100861.0;;;28.34;36.74
64019;BME280;66942;52.138;5.216;2023-09-19T09:23:07;100862.0;;;28.13;35.82
64019;BME280;66942;52.138;5.216;2023-09-19T09:26:41;100860.0;;;28.53;35.83
64019;BME280;66942;52.138;5.216;2023-09-19T09:28:21;100855.0;;;28.31;35.76
64019;BME280;66942;52.138;5.216;2023-09-19T09:29:58;100860.0;;;28.27;34.94
64019;BME280;66942;52.138;5.216;2023-09-19T09:31:34;100859.0;;;28.41;34.92
64019;BME280;66942;52.138;5.216;2023-09-19T09:34:52;100856.0;;;28.14;35.42
64019;BME280;66942;52.138;5.216;2023-09-19T09:36:37;100865.0;;;28.18;35.18
64019;BME280;66942;52.138;5.216;2023-09-19T09:38:15;100856.0;;;27.88;36.04
64019;BME280;66942;52.138;5.216;2023-09-19T09:39:53;100853.0;;;27.62;36.28
64019;BME280;66942;52.138;5.216;2023-09-19T09:43:25;100849.0;;;28.45;35.75
64019;BME280;66942;52.138;5.216;2023-09-19T09:45:20;100839.0;;;28.01;35.96
64019;BME280;66942;52.138;5.216;2023-09-19T09:46:56;100842.0;;;28.18;36.21
64019;BME280;66942;52.138;5.216;2023-09-19T09:48:32;100841.0;;;28.22;36.4
64019;BME280;66942;52.138;5.216;2023-09-19T09:51:45;100843.0;;;28.4;35.85
64019;BME280;66942;52.138;5.216;2023-09-19T09:53:27;100849.0;;;28.49;35.57
64019;BME280;66942;52.138;5.216;2023-09-19T09:55:04;100846.0;;;28.5;36.08
64019;BME280;66942;52.138;5.216;2023-09-19T09:56:56;100842.0;;;28.25;35.92
64019;BME280;66942;52.138;5.216;2023-09-19T10:00:10;100839.0;;;28.41;35.18
64019;BME280;66942;52.138;5.216;2023-09-19T10:01:47;100846.0;;;28.54;35.46
64019;BME280;66942;52.138;5.216;2023-09-19T10:03:31;100853.0;;;28.59;35.74
64019;BME280;66942;52.138;5.216;2023-09-19T10:05:12;100859.0;;;28.47;36.99
64019;BME280;66942;52.138;5.216;2023-09-19T10:08:27;100861.0;;;28.59;35.28
64019;BME280;66942;52.138;5.216;2023-09-19T10:10:04;100858.0;;;27.66;35.99
64019;BME280;66942;52.138;5.216;2023-09-19T10:11:42;100856.0;;;28.28;35.03
64019;BME280;66942;52.138;5.216;2023-09-19T10:13:20;100858.0;;;28.57;34.85
64019;BME280;66942;52.138;5.216;2023-09-19T10:16:40;100855.0;;;28.77;34.85
64019;BME280;66942;52.138;5.216;2023-09-19T10:18:20;100850.0;;;28.46;34.96
64019;BME280;66942;52.138;5.216;2023-09-19T10:19:56;100844.0;;;28.1;35.04
64019;BME280;66942;52.138;5.216;2023-09-19T10:23:11;100837.0;;;28.54;34.75
64019;BME280;66942;52.138;5.216;2023-09-19T10:24:49;100832.0;;;28.75;34.71
64019;BME280;66942;52.138;5.216;2023-09-19T10:26:26;100836.0;;;28.56;35.17
64019;BME280;66942;52.138;5.216;2023-09-19T10:28:05;100821.0;;;28.65;35.26
64019;BME280;66942;52.138;5.216;2023-09-19T10:31:21;100825.0;;;29.09;34.43
64019;BME280;66942;52.138;5.216;2023-09-19T10:33:00;100808.0;;;29.2;34.03
64019;BME280;66942;52.138;5.216;2023-09-19T10:34:38;100808.0;;;29.61;34.36
64019;BME280;66942;52.138;5.216;2023-09-19T10:36:17;100808.0;;;29.88;34.49
64019;BME280;66942;52.138;5.216;2023-09-19T10:39:32;100806.0;;;29.69;34.46
64019;BME280;66942;52.138;5.216;2023-09-19T10:41:10;100807.0;;;29.85;33.61
64019;BME280;66942;52.138;5.216;2023-09-19T10:42:49;100805.0;;;29.78;32.89
64019;BME280;66942;52.138;5.216;2023-09-19T10:46:08;100807.0;;;29.98;32.86
64019;BME280;66942;52.138;5.216;2023-09-19T10:47:44;100802.0;;;29.74;32.67
64019;BME280;66942;52.138;5.216;2023-09-19T10:49:21;100805.0;;;30.32;32.55
64019;BME280;66942;52.138;5.216;2023-09-19T10:51:04;100802.0;;;29.89;33.42
64019;BME280;66942;52.138;5.216;2023-09-19T10:54:20;100802.0;;;30.12;33.26
64019;BME280;66942;52.138;5.216;2023-09-19T10:55:59;100793.0;;;30.23;33.79
64019;BME280;66942;52.138;5.216;2023-09-19T10:57:37;100796.0;;;30.65;32.58
64019;BME280;66942;52.138;5.216;2023-09-19T11:00:53;100785.0;;;29.96;33.3
64019;BME280;66942;52.138;5.216;2023-09-19T11:02:30;100792.0;;;29.8;33.56
64019;BME280;66942;52.138;5.216;2023-09-19T11:04:21;100783.0;;;30.2;32.74
64019;BME280;66942;52.138;5.216;2023-09-19T11:06:02;100787.0;;;29.86;32.74